.
WxDataArchive / Data Records for 2012-01-01
2011-12-31 January 2012 2012-01-02

Data Records for Sunday, 01 January 2012

Time	Temp	Chill	HIndex	Humid	Dewpt	 Wind 	HiWind	WindDir	Rain 	Barom 
-----	----	-----	------	-----	-----	------	------	-------	-----	----- 
00:00	36.9	36.9	36.9	91	34.5	1	3	90	0.00	29.910 
00:05	36.8	36.8	36.8	91	34.4	1	2	90	0.00	29.910 
00:10	36.6	36.6	36.6	91	34.2	1	3	112	0.00	29.910 
00:15	36.5	36.5	36.5	91	34.1	1	3	112	0.00	29.890 
00:20	36.3	36.3	36.3	91	33.9	1	3	112	0.00	29.890 
00:25	36.2	36.2	36.2	91	33.8	1	4	112	0.00	29.890 
00:30	36.2	36.2	36.2	92	34.1	1	3	112	0.00	29.886 
00:35	36.2	36.2	36.2	92	34.1	1	3	135	0.00	29.886 
00:40	36.0	36.0	36.0	92	33.9	1	3	112	0.00	29.886 
00:45	36.0	36.0	36.0	92	33.9	1	3	112	0.00	29.870 
00:50	36.0	36.0	36.0	92	33.9	1	2	135	0.00	29.870 
00:55	35.9	35.9	35.9	92	33.8	1	2	135	0.00	29.870 
01:00	35.9	35.9	35.9	92	33.8	1	5	135	0.00	29.850 
01:05	35.9	35.9	35.9	92	33.8	1	2	112	0.00	29.850 
01:10	35.9	35.9	35.9	92	33.8	1	4	45	0.00	29.850 
01:15	36.0	36.0	36.0	92	33.9	1	3	90	0.00	29.836 
01:20	35.9	35.9	35.9	92	33.8	1	3	112	0.00	29.836 
01:25	36.0	36.0	36.0	92	33.9	2	4	112	0.00	29.836 
01:30	36.0	36.0	36.0	92	33.9	0	2	90	0.00	29.825 
01:35	36.0	36.0	36.0	92	33.9	0	2	90	0.00	29.825 
01:40	36.0	36.0	36.0	92	33.9	1	3	90	0.00	29.825 
01:45	36.0	36.0	36.0	92	33.9	0	2	135	0.00	29.832 
01:50	36.0	36.0	36.0	92	33.9	1	2	135	0.00	29.832 
01:55	35.9	35.9	35.9	92	33.8	0	3	135	0.00	29.832 
02:00	35.8	35.8	35.8	92	33.7	1	2	135	0.00	29.813 
02:05	35.9	35.9	35.9	92	33.8	0	2	135	0.00	29.813 
02:10	35.9	35.9	35.9	92	33.8	1	3	135	0.00	29.813 
02:15	35.8	35.8	35.8	92	33.7	1	2	135	0.00	29.793 
02:20	35.8	35.8	35.8	92	33.7	1	4	135	0.00	29.793 
02:25	35.9	35.9	35.9	92	33.8	1	4	135	0.00	29.793 
02:30	36.0	36.0	36.0	92	33.9	1	5	90	0.00	29.775 
02:35	36.3	36.3	36.3	92	34.2	2	5	68	0.00	29.775 
02:40	36.8	36.8	36.8	92	34.7	2	9	90	0.00	29.775 
02:45	36.9	36.9	36.9	92	34.8	1	4	90	0.00	29.768 
02:50	37.2	37.2	37.2	96	36.2	2	5	90	0.00	29.768 
02:55	37.6	37.6	37.6	92	35.5	2	4	112	0.00	29.768 
03:00	37.9	37.9	37.9	91	35.5	2	4	90	0.00	29.749 
03:05	38.2	38.2	38.2	91	35.8	2	4	112	0.00	29.749 
03:10	38.6	38.6	38.6	90	35.9	3	10	90	0.00	29.749 
03:15	39.2	39.2	39.2	88	35.9	3	9	90	0.00	29.726 
03:20	39.5	39.5	39.5	87	36.0	2	6	112	0.00	29.726 
03:25	39.9	39.9	39.9	86	36.1	2	5	68	0.00	29.726 
03:30	40.2	40.2	40.2	85	36.1	2	9	112	0.00	29.723 
03:35	40.6	40.6	40.6	84	36.2	3	10	90	0.00	29.723 
03:40	41.1	41.1	41.1	82	36.0	3	12	90	0.00	29.723 
03:45	41.3	41.3	41.3	81	35.9	2	4	90	0.00	29.708 
03:50	41.6	41.6	41.6	81	36.2	2	5	112	0.00	29.708 
03:55	41.8	41.8	41.8	80	36.1	1	4	90	0.00	29.708 
04:00	42.1	42.1	42.1	79	36.1	2	6	90	0.00	29.706 
04:05	42.3	42.3	42.3	79	36.3	1	3	90	0.00	29.706 
04:10	42.3	42.3	42.3	78	35.9	2	6	112	0.00	29.706 
04:15	42.5	42.5	42.5	78	36.1	1	3	90	0.00	29.704 
04:20	42.5	42.5	42.5	78	36.1	1	5	90	0.00	29.704 
04:25	42.6	42.6	42.6	77	35.9	2	7	90	0.00	29.704 
04:30	42.8	42.8	42.8	77	36.1	3	9	90	0.00	29.688 
04:35	42.8	42.8	42.8	77	36.1	3	12	90	0.00	29.688 
04:40	42.9	42.9	42.9	77	36.2	3	9	90	0.00	29.688 
04:45	42.9	42.9	42.9	77	36.2	2	5	112	0.00	29.672 
04:50	42.9	42.9	42.9	77	36.2	2	4	135	0.00	29.672 
04:55	42.9	42.9	42.9	77	36.2	2	4	112	0.00	29.672 
05:00	42.9	42.9	42.9	78	36.5	1	4	112	0.00	29.662 
05:05	42.9	42.9	42.9	78	36.5	1	3	112	0.00	29.662 
05:10	42.9	42.9	42.9	78	36.5	2	5	112	0.00	29.662 
05:15	43.1	43.1	43.1	78	36.7	2	5	112	0.00	29.648 
05:20	43.1	43.1	43.1	78	36.7	1	4	112	0.00	29.648 
05:25	43.1	43.1	43.1	78	36.7	1	4	68	0.00	29.648 
05:30	43.2	43.2	43.2	78	36.8	1	3	135	0.00	29.645 
05:35	43.3	43.3	43.3	78	36.9	0	3	68	0.00	29.645 
05:40	43.3	43.3	43.3	78	36.9	0	2	68	0.00	29.645 
05:45	43.3	43.3	43.3	78	36.9	0	2	68	0.00	29.634 
05:50	43.2	43.2	43.2	78	36.8	0	3	68	0.00	29.634 
05:55	43.2	43.2	43.2	78	36.8	1	3	68	0.00	29.634 
06:00	43.2	43.2	43.2	78	36.8	0	2	68	0.00	29.629 
06:05	43.1	43.1	43.1	78	36.7	0	3	68	0.00	29.629 
06:10	43.1	43.1	43.1	79	37.0	1	4	68	0.00	29.629 
06:15	43.2	43.2	43.2	79	37.1	1	2	68	0.00	29.624 
06:20	43.2	43.2	43.2	79	37.1	0	2	68	0.00	29.624 
06:25	43.2	43.2	43.2	79	37.1	0	2	68	0.00	29.624 
06:30	43.2	43.2	43.2	79	37.1	0	2	68	0.00	29.617 
06:35	43.3	43.3	43.3	79	37.2	0	2	68	0.00	29.617 
06:40	43.3	43.3	43.3	79	37.2	1	3	68	0.00	29.617 
06:45	43.5	43.5	43.5	80	37.7	1	6	68	0.00	29.612 
06:50	43.8	43.8	43.8	79	37.7	1	4	248	0.00	29.612 
06:55	43.9	43.9	43.9	79	37.8	0	2	248	0.00	29.612 
07:00	44.2	44.2	44.2	79	38.1	1	11	315	0.00	29.605 
07:05	44.5	44.5	44.5	78	38.1	1	3	68	0.00	29.605 
07:10	44.8	44.8	44.8	78	38.4	1	6	22	0.00	29.605 
07:15	45.1	45.1	45.1	77	38.3	2	10	292	0.00	29.594 
07:20	45.4	45.4	45.4	77	38.6	1	7	248	0.00	29.594 
07:25	45.7	45.7	45.7	76	38.6	1	5	248	0.00	29.594 
07:30	45.8	45.8	45.8	76	38.7	2	4	248	0.00	29.595 
07:35	46.0	46.0	46.0	76	38.9	2	6	248	0.00	29.595 
07:40	46.1	46.1	46.1	76	39.0	2	7	248	0.00	29.595 
07:45	46.2	46.2	46.2	76	39.1	1	5	270	0.00	29.595 
07:50	46.2	46.2	46.2	76	39.1	2	10	248	0.00	29.595 
07:55	46.4	46.4	46.4	76	39.3	1	5	248	0.00	29.595 
08:00	46.5	46.5	46.5	76	39.3	2	7	270	0.00	29.593 
08:05	46.5	46.5	46.5	75	39.0	2	5	248	0.00	29.593 
08:10	46.7	46.7	46.7	75	39.2	2	7	248	0.00	29.593 
08:15	46.8	46.8	46.8	75	39.3	3	7	248	0.00	29.587 
08:20	47.1	47.1	47.1	75	39.6	2	5	248	0.00	29.587 
08:25	47.3	47.3	47.3	76	40.1	3	11	248	0.00	29.587 
08:30	47.3	47.3	47.3	77	40.5	3	7	248	0.00	29.580 
08:35	47.4	45.9	47.4	76	40.2	4	11	248	0.00	29.580 
08:40	47.7	45.5	47.7	76	40.5	5	10	248	0.00	29.580 
08:45	47.9	47.9	47.9	75	40.4	3	12	248	0.00	29.586 
08:50	47.9	45.8	47.9	74	40.0	5	13	248	0.00	29.586 
08:55	47.9	45.8	47.9	74	40.0	5	12	248	0.00	29.586 
09:00	47.7	45.5	47.7	74	39.8	5	13	248	0.00	29.599 
09:05	47.6	45.4	47.6	74	39.7	5	11	270	0.00	29.599 
09:10	47.3	44.5	47.3	73	39.1	6	12	270	0.00	29.599 
09:15	47.0	43.1	47.0	72	38.4	8	14	270	0.00	29.617 
09:20	46.5	43.5	46.5	73	38.3	6	13	270	0.00	29.617 
09:25	46.1	42.5	46.1	72	37.6	7	15	270	0.00	29.617 
09:30	44.9	40.6	44.9	72	36.4	8	13	270	0.00	29.642 
09:35	44.1	40.6	44.1	73	36.0	6	12	270	0.00	29.642 
09:40	43.6	40.0	43.6	74	35.9	6	12	270	0.00	29.642 
09:45	43.3	40.3	43.3	75	35.9	5	13	270	0.00	29.643 
09:50	43.1	40.1	43.1	76	36.1	5	12	270	0.00	29.643 
09:55	42.9	39.2	42.9	76	35.9	6	13	270	0.00	29.643 
10:00	42.6	38.9	42.6	77	35.9	6	11	270	0.00	29.644 
10:05	42.5	39.4	42.5	78	36.1	5	11	270	0.00	29.644 
10:10	42.3	40.0	42.3	79	36.3	4	9	270	0.00	29.644 
10:15	42.2	39.1	42.2	80	36.5	5	17	270	0.00	29.655 
10:20	42.1	38.9	42.1	81	36.7	5	11	270	0.00	29.655 
10:25	41.9	38.7	41.9	81	36.5	5	11	270	0.00	29.655 
10:30	41.9	39.5	41.9	82	36.8	4	11	248	0.00	29.647 
10:35	41.9	39.5	41.9	82	36.8	4	11	270	0.00	29.647 
10:40	41.8	39.4	41.8	83	37.0	4	9	270	0.00	29.647 
10:45	41.8	38.6	41.8	83	37.0	5	15	248	0.00	29.649 
10:50	41.6	38.4	41.6	84	37.1	5	16	248	0.00	29.649 
10:55	41.6	38.4	41.6	84	37.1	5	10	270	0.00	29.649 
11:00	41.5	38.2	41.5	84	37.0	5	15	248	0.00	29.658 
11:05	41.5	37.5	41.5	84	37.0	6	13	270	0.00	29.658 
11:10	41.5	39.1	41.5	85	37.3	4	10	270	0.00	29.658 
11:15	41.3	38.8	41.3	85	37.1	4	11	248	0.00	29.661 
11:20	41.3	38.8	41.3	86	37.4	4	11	270	0.00	29.661 
11:25	41.2	38.7	41.2	86	37.3	4	10	248	0.00	29.661 
11:30	41.2	37.9	41.2	87	37.6	5	15	270	0.00	29.662 
11:35	41.1	38.6	41.1	88	37.8	4	11	248	0.00	29.662 
11:40	40.9	38.4	40.9	88	37.6	4	10	270	0.00	29.662 
11:45	40.8	38.2	40.8	89	37.8	4	11	248	0.00	29.666 
11:50	40.6	37.2	40.6	90	37.9	5	11	270	0.01	29.666 
11:55	40.6	38.0	40.6	90	37.9	4	7	270	0.00	29.666 
12:00	40.1	35.9	40.1	90	37.4	6	11	270	0.01	29.683 
12:05	39.2	34.2	39.2	89	36.2	7	12	270	0.00	29.683 
12:10	38.9	34.4	38.9	88	35.7	6	13	270	0.00	29.683 
12:15	38.8	35.1	38.8	88	35.6	5	10	270	0.00	29.697 
12:20	38.6	34.8	38.6	87	35.1	5	9	270	0.00	29.697 
12:25	38.3	33.1	38.3	85	34.2	7	14	270	0.00	29.697 
12:30	38.2	33.0	38.2	84	33.8	7	13	270	0.00	29.705 
12:35	38.2	34.4	38.2	84	33.8	5	11	270	0.00	29.705 
12:40	38.2	35.2	38.2	84	33.8	4	11	270	0.00	29.705 
12:45	38.0	34.1	38.0	84	33.6	5	9	270	0.00	29.718 
12:50	37.9	34.0	37.9	84	33.5	5	12	270	0.00	29.718 
12:55	37.8	33.1	37.8	83	33.1	6	11	270	0.00	29.718 
13:00	37.8	33.9	37.8	82	32.8	5	10	270	0.00	29.732 
13:05	37.8	33.9	37.8	83	33.1	5	11	270	0.00	29.732 
13:10	37.6	32.9	37.6	83	32.9	6	12	270	0.00	29.732 
13:15	37.6	34.5	37.6	83	32.9	4	7	270	0.00	29.746 
13:20	37.6	34.5	37.6	84	33.2	4	7	270	0.00	29.746 
13:25	37.5	33.5	37.5	83	32.8	5	10	270	0.00	29.746 
13:30	37.5	32.8	37.5	83	32.8	6	12	270	0.00	29.757 
13:35	37.3	32.5	37.3	83	32.6	6	10	270	0.00	29.757 
13:40	37.3	34.2	37.3	83	32.6	4	11	270	0.00	29.757 
13:45	37.3	34.2	37.3	84	32.9	4	8	270	0.00	29.763 
13:50	37.2	34.1	37.2	84	32.8	4	7	270	0.00	29.763 
13:55	37.2	37.2	37.2	85	33.1	3	9	270	0.00	29.763 
14:00	37.0	33.9	37.0	86	33.2	4	6	270	0.00	29.766 
14:05	37.0	33.9	37.0	86	33.2	4	9	270	0.00	29.766 
14:10	37.0	32.9	37.0	86	33.2	5	13	270	0.00	29.766 
14:15	37.0	37.0	37.0	86	33.2	3	7	270	0.00	29.767 
14:20	37.0	37.0	37.0	86	33.2	3	7	248	0.00	29.767 
14:25	37.0	33.9	37.0	86	33.2	4	7	270	0.00	29.767 
14:30	37.3	33.3	37.3	83	32.6	5	11	270	0.00	29.774 
14:35	38.2	35.2	38.2	80	32.6	4	10	270	0.00	29.774 
14:40	38.8	35.1	38.8	76	31.9	5	11	270	0.00	29.774 
14:45	39.1	36.3	39.1	74	31.5	4	9	270	0.00	29.779 
14:50	39.1	35.4	39.1	72	30.8	5	12	270	0.00	29.779 
14:55	39.1	35.4	39.1	72	30.8	5	10	270	0.00	29.779 
15:00	39.2	36.4	39.2	72	30.9	4	10	270	0.00	29.787 
15:05	39.3	36.5	39.3	72	31.0	4	7	270	0.00	29.787 
15:10	39.3	36.5	39.3	69	30.0	4	8	270	0.00	29.787 
15:15	39.3	36.5	39.3	69	30.0	4	9	270	0.00	29.785 
15:20	39.3	35.7	39.3	69	30.0	5	11	270	0.00	29.785 
15:25	39.3	35.7	39.3	69	30.0	5	13	270	0.00	29.785 
15:30	39.3	35.7	39.3	68	29.6	5	12	270	0.00	29.794 
15:35	39.3	35.7	39.3	68	29.6	5	9	270	0.00	29.794 
15:40	39.3	35.7	39.3	64	28.2	5	12	270	0.00	29.794 
15:45	38.9	34.4	38.9	59	25.8	6	11	270	0.00	29.812 
15:50	38.6	34.1	38.6	58	25.1	6	13	270	0.00	29.812 
15:55	38.5	34.0	38.5	58	25.0	6	13	270	0.00	29.812 
16:00	38.2	34.4	38.2	60	25.6	5	12	270	0.00	29.828 
16:05	38.0	32.7	38.0	56	23.7	7	13	270	0.00	29.828 
16:10	37.8	31.9	37.8	55	23.1	8	14	270	0.00	29.828 
16:15	37.5	31.5	37.5	56	23.2	8	13	270	0.00	29.846 
16:20	37.2	32.4	37.2	59	24.2	6	11	270	0.00	29.846 
16:25	36.6	30.4	36.6	58	23.2	8	14	270	0.00	29.846 
16:30	36.2	30.0	36.2	58	22.9	8	13	270	0.00	29.870 
16:35	36.0	30.3	36.0	58	22.7	7	13	270	0.00	29.870 
16:40	35.6	29.8	35.6	61	23.5	7	14	270	0.00	29.870 
16:45	35.0	29.8	35.0	64	24.1	6	10	270	0.00	29.885 
16:50	34.6	30.1	34.6	66	24.4	5	11	270	0.00	29.885 
16:55	34.1	28.7	34.1	67	24.3	6	12	270	0.00	29.885 
17:00	33.8	28.4	33.8	69	24.7	6	12	270	0.00	29.911 
17:05	32.1	25.6	32.1	73	24.4	7	13	270	0.00	29.911 
17:10	31.2	24.5	31.2	77	24.8	7	11	270	0.00	29.911 
17:15	30.9	25.8	30.9	78	24.9	5	13	270	0.00	29.921 
17:20	30.9	25.8	30.9	78	24.9	5	12	270	0.00	29.921 
17:25	31.2	26.1	31.2	75	24.2	5	9	270	0.00	29.921 
17:30	31.6	31.6	31.6	73	24.0	3	7	270	0.00	29.936 
17:35	31.8	31.8	31.8	71	23.5	3	6	270	0.00	29.936 
17:40	32.1	27.2	32.1	69	23.1	5	10	270	0.00	29.936 
17:45	31.9	27.0	31.9	68	22.6	5	10	270	0.00	29.949 
17:50	31.6	26.6	31.6	70	23.0	5	10	270	0.00	29.949 
17:55	31.5	27.5	31.5	70	22.9	4	10	270	0.00	29.949 
18:00	31.5	27.5	31.5	66	21.5	4	9	248	0.00	29.959 
18:05	31.5	26.5	31.5	64	20.7	5	11	270	0.00	29.959 
18:10	31.6	26.6	31.6	63	20.5	5	7	270	0.00	29.959 
18:15	31.6	26.6	31.6	62	20.1	5	10	270	0.00	29.965 
18:20	31.8	26.0	31.8	61	19.9	6	12	270	0.00	29.965 
18:25	31.9	27.0	31.9	60	19.6	5	10	270	0.00	29.965 
18:30	31.8	26.0	31.8	60	19.5	6	12	270	0.00	29.966 
18:35	31.6	26.6	31.6	62	20.1	5	11	270	0.00	29.966 
18:40	31.5	27.5	31.5	63	20.4	4	10	270	0.00	29.966 
18:45	31.5	24.9	31.5	63	20.4	7	15	270	0.00	29.971 
18:50	31.2	24.5	31.2	64	20.5	7	11	270	0.00	29.971 
18:55	30.7	26.6	30.7	67	21.1	4	9	270	0.00	29.971 
19:00	30.4	26.2	30.4	70	21.8	4	7	270	0.00	29.983 
19:05	30.0	25.8	30.0	74	22.7	4	10	270	0.00	29.983 
19:10	29.5	29.5	29.5	76	22.9	2	5	248	0.00	29.983 
19:15	29.4	29.4	29.4	77	23.1	3	5	248	0.00	29.982 
19:20	29.3	29.3	29.3	78	23.3	3	6	248	0.00	29.982 
19:25	29.3	29.3	29.3	78	23.3	3	6	270	0.00	29.982 
19:30	29.3	29.3	29.3	77	23.0	3	7	248	0.00	29.984 
19:35	29.4	29.4	29.4	76	22.8	3	6	248	0.00	29.984 
19:40	29.8	25.5	29.8	74	22.5	4	10	270	0.00	29.984 
19:45	30.1	24.8	30.1	73	22.5	5	9	270	0.00	29.993 
19:50	30.4	25.2	30.4	72	22.5	5	11	270	0.00	29.993 
19:55	30.6	26.5	30.6	71	22.3	4	8	270	0.00	29.993 
20:00	30.7	26.6	30.7	70	22.1	4	11	270	0.00	29.986 
20:05	30.9	25.8	30.9	70	22.3	5	12	270	0.00	29.986 
20:10	30.9	26.8	30.9	70	22.3	4	9	270	0.00	29.986 
20:15	30.9	26.8	30.9	69	21.9	4	8	248	0.00	29.992 
20:20	30.9	26.8	30.9	69	21.9	4	9	270	0.00	29.992 
20:25	30.9	26.8	30.9	69	21.9	4	9	270	0.00	29.992 
20:30	30.9	26.8	30.9	69	21.9	4	10	248	0.00	29.995 
20:35	30.7	30.7	30.7	70	22.1	3	7	248	0.00	29.995 
20:40	30.7	30.7	30.7	70	22.1	3	7	270	0.00	29.995 
20:45	30.7	30.7	30.7	70	22.1	3	7	248	0.00	29.994 
20:50	30.7	26.6	30.7	70	22.1	4	10	270	0.00	29.994 
20:55	30.7	26.6	30.7	70	22.1	4	8	270	0.00	29.994 
21:00	30.7	30.7	30.7	70	22.1	3	7	270	0.00	29.990 
21:05	30.7	26.6	30.7	70	22.1	4	9	270	0.00	29.990 
21:10	30.6	30.6	30.6	71	22.3	3	7	270	0.00	29.990 
21:15	30.6	26.5	30.6	70	22.0	4	7	248	0.00	29.987 
21:20	30.6	26.5	30.6	70	22.0	4	10	270	0.00	29.987 
21:25	30.6	25.4	30.6	70	22.0	5	17	270	0.00	29.987 
21:30	30.7	26.6	30.7	70	22.1	4	10	270	0.00	29.986 
21:35	30.7	26.6	30.7	70	22.1	4	9	248	0.00	29.986 
21:40	30.6	26.5	30.6	70	22.0	4	7	270	0.00	29.986 
21:45	30.6	26.5	30.6	71	22.3	4	8	270	0.00	29.985 
21:50	30.6	26.5	30.6	71	22.3	4	8	270	0.00	29.985 
21:55	30.4	26.2	30.4	70	21.8	4	8	270	0.00	29.985 
22:00	30.6	26.5	30.6	69	21.7	4	9	270	0.00	29.989 
22:05	30.6	26.5	30.6	69	21.7	4	8	270	0.00	29.989 
22:10	30.4	25.2	30.4	69	21.5	5	10	270	0.00	29.989 
22:15	30.4	26.2	30.4	69	21.5	4	6	270	0.00	29.990 
22:20	30.4	26.2	30.4	69	21.5	4	9	270	0.00	29.990 
22:25	30.3	30.3	30.3	71	22.0	3	8	270	0.00	29.990 
22:30	30.1	30.1	30.1	72	22.2	3	6	270	0.00	29.988 
22:35	30.0	25.8	30.0	72	22.1	4	7	270	0.00	29.988 
22:40	30.0	25.8	30.0	71	21.8	4	11	270	0.00	29.988 
22:45	30.1	24.8	30.1	69	21.2	5	9	270	0.00	29.990 
22:50	30.1	25.9	30.1	69	21.2	4	11	270	0.00	29.990 
22:55	30.1	25.9	30.1	69	21.2	4	7	270	0.00	29.990 
23:00	30.3	26.1	30.3	69	21.4	4	9	270	0.00	29.991 
23:05	30.3	30.3	30.3	69	21.4	3	8	270	0.00	29.991 
23:10	30.1	25.9	30.1	69	21.2	4	6	270	0.00	29.991 
23:15	30.1	25.9	30.1	69	21.2	4	9	248	0.00	29.995 
23:20	30.1	24.8	30.1	68	20.8	5	12	270	0.00	29.995 
23:25	30.0	25.8	30.0	68	20.7	4	7	270	0.00	29.995 
23:30	30.0	24.7	30.0	69	21.1	5	11	270	0.00	29.999 
23:35	29.8	24.5	29.8	69	20.9	5	10	270	0.00	29.999 
23:40	29.7	24.4	29.7	70	21.1	5	9	270	0.00	29.999 
23:45	29.7	25.4	29.7	71	21.5	4	9	270	0.00	29.994 
23:50	29.5	25.2	29.5	71	21.3	4	11	248	0.00	29.994 
23:55	29.5	25.2	29.5	72	21.6	4	9	270	0.00	29.994 

CoCoRaHS
IN-AL-39
A2 Web Hosting
Creative Commons License
GoDaddy
search engine by freefind advanced

loaded 2018-11-17 18:52:09 • last modified 2010-11-18 10:43:29
Privacy PolicyDisclaimer
• wx.awcolley.com is powered by PmWiki v.2002016 •
• all content (unless otherwise noted) © 2018 A W Colley